Time;durP1;ratioP1;P1;durP2;ratioP2;P2;SDS_P1;SDS_P2;PMS_P1;PMS_P2;Temp;Humidity;BMP_temperature;BMP_pressure;BME280_temperature;BME280_humidity;BME280_pressure;Samples;Min_cycle;Max_cycle;Signal;HPM_P1;HPM_P2
2022/08/31 00:05:23;;;;;;;3.92;2.55;;;19.70;98.10;;;19.14;81.22;101379.63;4198377;28;20051;-74
2022/08/31 00:07:26;;;;;;;4.78;2.63;;;19.70;98.00;;;19.20;81.60;101393.00;4199457;28;20028;-74
2022/08/31 00:09:27;;;;;;;5.55;2.92;;;19.70;98.20;;;19.13;81.70;101383.31;4201700;28;20033;-74
2022/08/31 00:11:29;;;;;;;3.63;2.63;;;19.70;98.20;;;19.08;82.29;101386.59;4201891;28;20139;-74
2022/08/31 00:13:30;;;;;;;4.90;2.30;;;19.70;98.40;;;19.11;82.73;101393.38;4200376;28;20043;-74
2022/08/31 00:15:31;;;;;;;5.10;2.63;;;19.60;98.50;;;19.04;82.92;101377.28;4202193;28;20029;-74
2022/08/31 00:17:32;;;;;;;5.07;2.58;;;19.60;98.50;;;18.99;82.66;101381.56;4203763;28;20023;-74
2022/08/31 00:19:33;;;;;;;4.40;2.58;;;19.60;98.40;;;18.91;83.02;101369.16;4197028;28;20033;-74
2022/08/31 00:21:34;;;;;;;6.15;2.53;;;19.50;98.50;;;19.06;83.85;101395.81;4220971;28;20380;-74
2022/08/31 00:23:35;;;;;;;5.90;2.75;;;19.50;98.80;;;18.89;84.45;101370.38;4204798;28;20060;-74
2022/08/31 00:25:40;;;;;;;6.47;2.92;;;19.50;98.90;;;18.95;84.53;101386.47;4205100;28;20073;-74
2022/08/31 00:27:41;;;;;;;7.78;2.83;;;19.50;99.00;;;18.97;84.22;101400.47;4203549;28;20036;-74
2022/08/31 00:29:42;;;;;;;4.90;2.67;;;19.50;98.90;;;18.79;83.54;101362.69;4200301;28;20029;-74
2022/08/31 00:31:42;;;;;;;7.25;2.75;;;19.40;98.70;;;18.87;83.88;101367.09;4204431;28;20545;-74
2022/08/31 00:33:44;;;;;;;8.15;3.15;;;19.40;98.80;;;18.95;84.15;101378.47;4203741;28;20064;-74
2022/08/31 00:35:45;;;;;;;9.80;3.00;;;19.40;98.90;;;18.88;84.39;101368.72;4204956;28;20028;-74
2022/08/31 00:37:46;;;;;;;6.03;2.58;;;19.40;99.10;;;18.86;84.46;101370.78;4203405;28;20017;-74
2022/08/31 00:39:47;;;;;;;8.20;2.92;;;19.40;99.00;;;18.91;84.23;101373.69;4203458;28;20492;-74
2022/08/31 00:41:48;;;;;;;5.97;2.83;;;19.40;99.00;;;18.94;84.51;101373.28;4191732;28;20029;-74
2022/08/31 00:43:53;;;;;;;6.47;3.28;;;19.40;99.10;;;18.77;83.86;101354.06;4204840;28;20063;-74
2022/08/31 00:45:54;;;;;;;4.15;2.65;;;19.40;98.90;;;18.77;83.62;101352.22;4203388;28;20036;-74
2022/08/31 00:47:54;;;;;;;5.97;3.47;;;19.30;98.80;;;18.87;83.47;101372.44;4185330;28;20024;-74
2022/08/31 00:49:56;;;;;;;5.88;3.33;;;19.40;98.80;;;18.89;83.69;101378.41;4193168;28;20027;-74
2022/08/31 00:52:05;;;;;;;5.05;3.05;;;19.30;98.80;;;18.91;83.55;101381.72;4203369;28;20484;-74
2022/08/31 00:54:09;;;;;;;6.85;2.60;;;19.30;98.80;;;18.85;83.84;101377.97;4200606;28;20499;-74
2022/08/31 00:56:10;;;;;;;7.13;2.80;;;19.30;98.90;;;18.73;83.67;101356.28;4220133;28;20016;-74
2022/08/31 00:58:12;;;;;;;7.38;2.83;;;19.30;98.90;;;18.74;83.74;101347.25;4203019;28;20066;-74
2022/08/31 01:00:19;;;;;;;5.72;2.90;;;19.30;98.90;;;18.68;83.66;101342.69;4197254;28;20105;-74
2022/08/31 01:02:20;;;;;;;5.53;3.33;;;19.30;98.90;;;18.66;83.61;101344.75;4202791;28;20029;-74
2022/08/31 01:04:21;;;;;;;5.63;3.13;;;19.30;98.90;;;18.79;83.72;101360.88;4204740;28;20021;-74
2022/08/31 01:06:23;;;;;;;5.50;2.90;;;19.30;98.90;;;18.68;83.44;101348.03;4203375;28;20024;-74
2022/08/31 01:08:24;;;;;;;7.10;3.70;;;19.30;98.90;;;18.71;83.25;101350.31;4196058;28;20040;-74
2022/08/31 01:10:30;;;;;;;5.63;3.30;;;19.30;98.80;;;18.69;83.22;101343.53;4204295;28;20039;-74
2022/08/31 01:12:32;;;;;;;6.35;3.22;;;19.30;98.90;;;18.73;83.54;101364.31;4204401;28;20104;-74
2022/08/31 01:14:35;;;;;;;7.18;3.30;;;19.20;98.80;;;18.74;84.00;101365.16;4204482;28;20024;-74
2022/08/31 01:16:51;;;;;;;7.95;3.50;;;19.20;99.00;;;18.76;84.10;101377.28;4202530;28;20050;-74
2022/08/31 01:18:55;;;;;;;8.00;3.35;;;19.20;99.10;;;18.76;83.79;101376.47;4202543;28;20044;-74
2022/08/31 01:21:27;;;;;;;5.15;2.75;;;19.20;98.90;;;18.59;82.98;101354.53;4202935;28;20054;-74
2022/08/31 01:23:37;;;;;;;6.90;3.67;;;19.20;98.80;;;18.79;82.96;101392.94;4200290;28;20108;-74
2022/08/31 01:25:41;;;;;;;5.78;3.20;;;19.30;98.70;;;18.62;83.11;101369.38;4201870;28;20031;-74
2022/08/31 01:27:43;;;;;;;7.18;2.80;;;19.30;98.80;;;18.81;82.91;101402.63;4178196;28;20024;-74
2022/08/31 01:29:44;;;;;;;6.57;2.92;;;19.30;98.70;;;18.76;82.70;101392.50;4203907;28;20068;-74
2022/08/31 01:31:46;;;;;;;7.65;3.55;;;19.20;98.70;;;18.62;83.00;101367.53;4202315;28;20039;-74
2022/08/31 01:33:48;;;;;;;5.40;2.50;;;19.20;98.80;;;18.64;83.65;101375.31;4202851;28;20024;-74
2022/08/31 01:35:49;;;;;;;7.05;3.15;;;19.20;99.00;;;18.58;83.76;101368.09;4185915;28;20029;-74
2022/08/31 01:37:51;;;;;;;6.50;2.80;;;19.20;99.00;;;18.57;84.43;101369.13;4203880;28;20099;-74
2022/08/31 01:39:52;;;;;;;6.07;3.00;;;19.20;99.20;;;18.53;85.01;101375.84;4202665;28;20043;-74
2022/08/31 01:41:53;;;;;;;4.47;3.35;;;19.20;99.40;;;18.68;84.57;101396.16;4203322;28;20020;-74
2022/08/31 01:43:54;;;;;;;6.55;3.58;;;19.10;99.20;;;18.68;85.77;101398.00;4203796;28;20033;-74
2022/08/31 01:45:55;;;;;;;5.72;2.80;;;19.10;99.50;;;18.46;86.15;101367.75;4203414;28;20028;-74
2022/08/31 01:47:58;;;;;;;7.57;3.00;;;19.10;99.70;;;18.39;85.92;101356.19;4203483;28;20039;-74
2022/08/31 01:49:59;;;;;;;4.55;2.92;;;19.00;99.60;;;18.56;86.13;101394.19;4202653;28;20027;-74
2022/08/31 01:52:01;;;;;;;5.50;3.55;;;19.00;99.70;;;18.52;85.94;101391.06;4203618;28;20033;-74
2022/08/31 01:54:02;;;;;;;5.00;2.88;;;19.00;99.70;;;18.35;86.04;101359.44;4202535;28;20020;-74
2022/08/31 01:56:09;;;;;;;5.47;3.10;;;19.00;99.70;;;18.50;86.81;101393.09;4203374;28;20033;-74
2022/08/31 01:58:10;;;;;;;6.50;3.53;;;19.00;99.90;;;18.21;87.38;101363.84;4202427;28;20031;-74
2022/08/31 02:00:11;;;;;;;8.90;3.30;;;18.90;99.90;;;18.31;87.91;101383.00;4203464;28;20392;-74
2022/08/31 02:02:12;;;;;;;8.40;3.80;;;18.90;99.90;;;18.17;87.48;101362.53;4202065;28;20032;-74
2022/08/31 02:04:15;;;;;;;7.15;3.25;;;18.80;99.90;;;18.23;87.28;101378.63;4203329;28;20029;-74
2022/08/31 02:06:16;;;;;;;5.93;3.15;;;18.80;99.90;;;18.21;86.63;101380.69;4202305;28;20032;-74
2022/08/31 02:08:17;;;;;;;4.93;2.92;;;18.80;99.90;;;18.19;86.42;101368.50;4194133;28;20074;-74
2022/08/31 02:10:18;;;;;;;5.85;3.38;;;18.80;99.80;;;18.38;85.97;101391.09;4199171;28;20050;-74
2022/08/31 02:12:19;;;;;;;4.90;2.95;;;18.80;99.80;;;18.40;86.61;101402.44;4203336;28;20476;-74
2022/08/31 02:14:20;;;;;;;5.68;3.22;;;18.80;99.90;;;18.22;86.54;101370.81;4203494;28;20024;-74
2022/08/31 02:16:21;;;;;;;8.25;3.00;;;18.80;99.90;;;18.23;86.39;101377.81;4202954;28;20032;-74
2022/08/31 02:18:22;;;;;;;5.00;2.90;;;18.80;99.80;;;18.19;86.91;101368.50;4203109;28;20028;-74
2022/08/31 02:20:24;;;;;;;5.80;3.03;;;18.80;99.90;;;18.13;87.06;101369.28;4186764;28;20029;-74
2022/08/31 02:22:25;;;;;;;6.50;3.55;;;18.70;99.90;;;18.08;87.24;101369.84;4191978;28;20086;-74
2022/08/31 02:24:26;;;;;;;5.38;3.05;;;18.70;99.90;;;18.08;87.67;101372.53;4202992;28;20483;-74
2022/08/31 02:26:27;;;;;;;6.30;3.30;;;18.70;99.90;;;18.10;87.71;101383.84;4203119;28;20089;-74
2022/08/31 02:28:27;;;;;;;5.43;2.92;;;18.60;99.90;;;18.04;87.77;101373.91;4201730;28;20120;-74
2022/08/31 02:30:28;;;;;;;6.60;3.50;;;18.60;99.90;;;18.06;87.70;101381.75;4201919;28;20531;-74
2022/08/31 02:32:29;;;;;;;8.50;3.20;;;18.60;99.90;;;17.90;87.85;101345.44;4194265;28;20111;-74
2022/08/31 02:34:30;;;;;;;5.82;3.25;;;18.60;99.90;;;17.90;87.96;101348.09;4202918;28;20032;-74
2022/08/31 02:36:31;;;;;;;6.80;3.47;;;18.60;99.90;;;18.07;89.11;101378.06;4202757;28;20040;-74
2022/08/31 02:38:35;;;;;;;5.18;3.10;;;18.50;99.90;;;18.01;89.25;101381.50;4201102;28;20566;-74
2022/08/31 02:40:37;;;;;;;5.43;3.00;;;18.50;99.90;;;17.97;89.55;101381.03;4203033;28;20427;-74
2022/08/31 02:42:39;;;;;;;5.22;3.40;;;18.50;99.90;;;17.97;89.79;101382.88;4201473;28;20104;-74
2022/08/31 02:44:40;;;;;;;6.60;3.53;;;18.40;99.90;;;17.88;89.95;101373.31;4201304;28;20029;-74
2022/08/31 02:46:41;;;;;;;4.93;3.05;;;18.40;99.90;;;17.77;90.67;101357.81;4201308;28;20031;-74
2022/08/31 02:48:42;;;;;;;5.88;3.40;;;18.30;99.90;;;17.69;90.62;101348.06;4201446;28;20088;-74
2022/08/31 02:50:48;;;;;;;6.10;3.35;;;18.40;99.90;;;17.69;91.80;101342.72;4202681;28;20056;-74
2022/08/31 02:52:49;;;;;;;7.15;3.75;;;18.30;99.90;;;17.74;92.37;101355.50;4184908;28;20117;-74
2022/08/31 02:54:50;;;;;;;9.63;3.30;;;18.30;99.90;;;17.60;92.12;101339.34;4201522;28;20085;-74
2022/08/31 02:56:51;;;;;;;8.20;3.50;;;18.30;99.90;;;17.67;92.80;101352.75;4184721;28;20024;-74
2022/08/31 02:58:53;;;;;;;7.50;3.17;;;18.20;99.90;;;17.68;93.24;101359.75;4201327;28;20028;-74
2022/08/31 03:00:55;;;;;;;5.93;3.20;;;18.20;99.90;;;17.62;93.13;101355.19;4202052;28;20035;-74
2022/08/31 03:02:55;;;;;;;7.63;3.65;;;18.20;99.90;;;17.61;92.92;101369.53;4201307;28;20035;-74
2022/08/31 03:04:56;;;;;;;9.10;3.63;;;18.20;99.90;;;17.50;92.82;101344.09;4184529;28;20111;-74
2022/08/31 03:06:57;;;;;;;5.43;3.13;;;18.20;99.90;;;17.68;92.83;101376.56;4202350;28;20051;-74
2022/08/31 03:08:59;;;;;;;4.28;3.05;;;18.20;99.90;;;17.68;92.92;101368.56;4187101;28;20132;-74
2022/08/31 03:11:00;;;;;;;5.07;2.80;;;18.20;99.90;;;17.67;92.92;101369.59;4202378;28;20012;-74
2022/08/31 03:13:01;;;;;;;4.22;3.10;;;18.20;99.90;;;17.62;93.15;101355.97;4201128;28;20074;-74
2022/08/31 03:15:05;;;;;;;8.23;2.83;;;18.20;99.90;;;17.59;93.74;101356.34;4201081;28;20099;-74
2022/08/31 03:17:06;;;;;;;9.77;3.20;;;18.20;99.90;;;17.67;94.56;101380.28;4184150;28;20108;-74
2022/08/31 03:19:08;;;;;;;8.23;3.90;;;18.10;99.90;;;17.52;94.48;101365.28;4202639;28;20029;-74
2022/08/31 03:21:09;;;;;;;8.88;3.38;;;18.10;99.90;;;17.49;94.43;101361.13;4201021;28;20106;-74
2022/08/31 03:23:11;;;;;;;8.07;3.72;;;18.10;99.90;;;17.43;94.69;101351.22;4202293;28;20024;-74
2022/08/31 03:25:12;;;;;;;6.15;3.47;;;18.10;99.90;;;17.43;95.11;101356.53;4201908;28;20073;-74
2022/08/31 03:27:13;;;;;;;5.13;3.00;;;18.00;99.90;;;17.47;95.11;101365.81;4201017;28;20483;-74
2022/08/31 03:29:14;;;;;;;9.93;3.88;;;18.00;99.90;;;17.58;95.23;101380.56;4191672;28;20063;-74
2022/08/31 03:31:15;;;;;;;7.20;3.50;;;18.10;99.90;;;17.40;95.17;101356.91;4201791;28;20036;-74
2022/08/31 03:33:16;;;;;;;9.20;4.95;;;18.10;99.90;;;17.53;95.29;101369.59;4201894;28;20029;-73
2022/08/31 03:35:17;;;;;;;4.32;3.10;;;18.10;99.90;;;17.62;95.09;101380.00;4202075;28;20503;-74
2022/08/31 03:37:20;;;;;;;7.47;3.10;;;18.10;99.90;;;17.56;95.30;101361.25;4217714;28;20020;-74
2022/08/31 03:39:21;;;;;;;5.07;3.28;;;18.20;99.90;;;17.58;95.46;101354.72;4202133;28;20024;-74
2022/08/31 03:41:24;;;;;;;6.25;3.33;;;18.20;99.90;;;17.66;95.49;101362.59;4200553;28;20035;-74
2022/08/31 03:43:25;;;;;;;6.32;3.25;;;18.30;99.90;;;17.69;95.63;101366.75;4200852;28;20037;-74
2022/08/31 03:45:26;;;;;;;7.90;3.15;;;18.30;99.90;;;17.66;95.60;101359.09;4201922;28;20063;-74
2022/08/31 03:47:27;;;;;;;7.40;3.72;;;18.30;99.90;;;17.72;95.38;101370.88;4217358;28;20451;-74
2022/08/31 03:49:29;;;;;;;5.53;2.95;;;18.40;99.90;;;17.76;95.25;101366.81;4201332;28;20029;-74
2022/08/31 03:51:30;;;;;;;9.57;3.70;;;18.40;99.90;;;17.83;95.08;101378.41;4201967;28;20021;-74
2022/08/31 03:53:31;;;;;;;5.10;3.33;;;18.50;99.90;;;17.88;94.94;101378.66;4200881;28;20096;-74
2022/08/31 03:55:34;;;;;;;6.15;3.65;;;18.50;99.90;;;17.92;95.63;101377.28;4200801;28;20028;-74
2022/08/31 03:57:35;;;;;;;6.77;3.20;;;18.50;99.90;;;17.78;95.46;101359.44;4214125;28;20468;-74
2022/08/31 03:59:36;;;;;;;6.80;3.42;;;18.50;99.90;;;17.86;96.08;101367.38;4183988;28;20287;-74
2022/08/31 04:01:38;;;;;;;6.20;3.20;;;18.50;99.90;;;17.90;96.04;101384.63;4201256;28;20025;-74
2022/08/31 04:03:39;;;;;;;7.47;3.88;;;18.50;99.90;;;17.73;95.63;101357.34;4200539;28;20028;-74
2022/08/31 04:05:44;;;;;;;7.13;3.72;;;18.50;99.90;;;17.79;95.43;101355.78;4197439;28;20033;-74
2022/08/31 04:07:45;;;;;;;9.52;3.63;;;18.40;99.90;;;17.90;95.40;101377.47;4189731;28;20044;-74
2022/08/31 04:09:48;;;;;;;6.18;3.42;;;18.40;99.90;;;17.85;95.42;101382.53;4201628;28;20472;-74
2022/08/31 04:11:49;;;;;;;4.68;3.35;;;18.40;99.90;;;17.77;96.11;101368.50;4202046;28;20071;-74
2022/08/31 04:13:50;;;;;;;8.18;3.78;;;18.40;99.90;;;17.72;96.32;101368.19;4200524;28;20024;-74
2022/08/31 04:15:51;;;;;;;8.32;3.90;;;18.30;99.90;;;17.58;96.59;101353.88;4183468;28;20024;-74
2022/08/31 04:17:51;;;;;;;7.45;3.70;;;18.30;99.90;;;17.69;97.17;101391.59;4192766;28;20020;-74
2022/08/31 04:19:52;;;;;;;7.47;3.47;;;18.20;99.90;;;17.48;97.24;101356.81;4201799;28;20395;-74
2022/08/31 04:21:54;;;;;;;5.70;3.35;;;18.20;99.90;;;17.42;97.97;101349.53;4183782;28;20127;-74
2022/08/31 04:23:56;;;;;;;9.48;4.20;;;18.10;99.90;;;17.51;98.58;101371.59;4201619;28;20024;-74
2022/08/31 04:25:58;;;;;;;10.32;4.93;;;18.10;99.90;;;17.46;99.03;101368.69;4200326;28;20029;-73
2022/08/31 04:28:00;;;;;;;6.18;3.80;;;18.00;99.90;;;17.27;99.33;101351.41;4201747;28;20028;-74
2022/08/31 04:30:02;;;;;;;8.20;3.60;;;18.00;99.90;;;17.40;99.37;101372.91;4201506;28;20108;-74
2022/08/31 04:32:03;;;;;;;7.50;4.10;;;17.90;99.90;;;17.20;99.84;101339.84;4201459;28;20484;-74
2022/08/31 04:34:04;;;;;;;6.85;4.30;;;17.90;99.90;;;17.20;100.00;101345.16;4201503;28;20116;-74
2022/08/31 04:36:09;;;;;;;6.85;4.10;;;17.80;99.90;;;17.12;100.00;101338.06;4201521;28;20503;-74
2022/08/31 04:38:10;;;;;;;6.72;3.90;;;17.80;99.90;;;17.08;100.00;101335.97;4183779;28;20040;-73
2022/08/31 04:40:18;;;;;;;11.25;4.30;;;17.70;99.90;;;17.13;100.00;101339.72;4200340;28;20017;-74
2022/08/31 04:42:19;;;;;;;7.90;4.22;;;17.70;99.90;;;17.04;100.00;101329.34;4194159;28;20028;-74
2022/08/31 04:44:20;;;;;;;8.43;4.10;;;17.70;99.90;;;17.07;100.00;101340.47;4201700;28;20028;-73
2022/08/31 04:46:22;;;;;;;8.50;4.47;;;17.70;99.90;;;17.13;100.00;101361.06;4201010;28;20056;-74
2022/08/31 04:48:23;;;;;;;8.45;5.20;;;17.70;99.90;;;17.13;100.00;101369.06;4201530;28;20072;-73
2022/08/31 04:50:24;;;;;;;13.88;5.35;;;17.70;99.90;;;16.94;100.00;101345.59;4200307;28;20033;-74
2022/08/31 04:52:24;;;;;;;8.85;5.05;;;17.60;99.90;;;16.98;100.00;101351.41;4197038;28;20099;-74
2022/08/31 04:54:25;;;;;;;6.68;4.93;;;17.60;99.90;;;17.01;100.00;101353.69;4201207;28;20024;-74
2022/08/31 04:56:31;;;;;;;9.25;4.25;;;17.60;99.90;;;17.02;100.00;101360.69;4200274;28;20419;-73
2022/08/31 04:58:32;;;;;;;10.18;4.60;;;17.60;99.90;;;16.88;100.00;101332.16;4192932;28;20033;-74
2022/08/31 05:00:34;;;;;;;8.25;4.95;;;17.50;99.90;;;16.99;100.00;101356.53;4200330;28;20035;-73
2022/08/31 05:02:36;;;;;;;7.65;3.83;;;17.60;99.90;;;16.85;100.00;101335.19;4202213;28;20032;-74
2022/08/31 05:04:37;;;;;;;7.25;4.07;;;17.50;99.90;;;17.03;100.00;101367.66;4193066;28;20024;-74
2022/08/31 05:06:41;;;;;;;10.10;4.30;;;17.50;99.90;;;16.90;100.00;101348.81;4196977;28;20055;-74
2022/08/31 05:08:43;;;;;;;7.32;4.55;;;17.50;99.90;;;16.83;100.00;101334.56;4206902;28;20044;-74
2022/08/31 05:10:45;;;;;;;8.43;5.10;;;17.50;99.90;;;16.87;100.00;101352.69;4203295;28;20032;-74
2022/08/31 05:12:46;;;;;;;7.25;4.10;;;17.40;99.90;;;16.88;100.00;101356.16;4203012;28;20032;-74
2022/08/31 05:14:46;;;;;;;6.88;4.95;;;17.40;99.90;;;16.82;100.00;101351.53;4195607;28;20020;-74
2022/08/31 05:16:48;;;;;;;10.68;5.35;;;17.40;99.90;;;16.88;100.00;101362.31;4203886;28;20070;-73
2022/08/31 05:18:50;;;;;;;8.13;4.35;;;17.40;99.90;;;16.78;100.00;101344.94;4203992;28;20039;-74
2022/08/31 05:20:51;;;;;;;8.05;5.32;;;17.40;99.90;;;16.81;100.00;101357.91;4219833;28;20035;-74
2022/08/31 05:22:52;;;;;;;10.70;4.82;;;17.40;99.90;;;16.76;100.00;101345.13;4203003;28;20040;-74
2022/08/31 05:24:53;;;;;;;6.47;4.20;;;17.40;99.90;;;16.77;100.00;101354.78;4197812;28;20020;-73
2022/08/31 05:26:55;;;;;;;6.50;3.97;;;17.40;99.90;;;16.74;100.00;101349.81;4202885;28;20040;-74
2022/08/31 05:28:58;;;;;;;8.05;4.22;;;17.40;99.90;;;16.77;100.00;101360.09;4202882;28;20020;-74
2022/08/31 05:31:00;;;;;;;8.77;4.75;;;17.40;99.90;;;16.82;100.00;101367.53;4202347;28;20032;-74
2022/08/31 05:33:01;;;;;;;9.63;6.47;;;17.40;99.90;;;16.76;100.00;101357.59;4203968;28;20055;-74
2022/08/31 05:35:02;;;;;;;7.60;4.82;;;17.40;99.90;;;16.74;100.00;101354.31;4203961;28;20029;-74
2022/08/31 05:37:03;;;;;;;8.32;4.80;;;17.40;99.90;;;16.75;100.00;101359.47;4203981;28;20031;-74
2022/08/31 05:39:08;;;;;;;11.98;6.40;;;17.40;99.90;;;16.72;100.00;101361.66;4203847;28;20028;-74
2022/08/31 05:41:09;;;;;;;7.95;4.63;;;17.40;99.90;;;16.87;100.00;101375.84;4202642;28;20035;-74
2022/08/31 05:43:10;;;;;;;10.55;5.15;;;17.40;99.90;;;16.88;100.00;101374.81;4185922;28;20024;-74
2022/08/31 05:45:11;;;;;;;10.02;4.72;;;17.50;99.90;;;16.88;100.00;101375.63;4192025;28;20028;-73
2022/08/31 05:47:12;;;;;;;10.90;5.60;;;17.50;99.90;;;16.83;100.00;101374.53;4185680;28;20029;-74
2022/08/31 05:49:14;;;;;;;8.15;4.68;;;17.50;99.90;;;16.98;100.00;101399.38;4203664;28;20040;-74
2022/08/31 05:51:17;;;;;;;7.63;4.45;;;17.50;99.90;;;16.92;100.00;101400.09;4203225;28;20059;-74
2022/08/31 05:53:18;;;;;;;9.75;5.13;;;17.50;99.90;;;16.83;100.00;101385.19;4203691;28;20025;-74
2022/08/31 05:55:19;;;;;;;7.53;4.78;;;17.50;99.90;;;16.79;100.00;101390.03;4202250;28;20035;-74
2022/08/31 05:57:20;;;;;;;8.18;5.35;;;17.40;99.90;;;16.75;100.00;101372.78;4185625;28;20039;-74
2022/08/31 05:59:21;;;;;;;10.30;4.90;;;17.50;99.90;;;16.91;100.00;101395.75;4203354;28;20059;-74
2022/08/31 06:01:35;;;;;;;9.18;5.00;;;17.50;99.90;;;16.97;100.00;101414.53;4203325;28;20035;-74
2022/08/31 06:03:36;;;;;;;8.95;5.32;;;17.50;99.90;;;16.82;100.00;101391.50;4203460;28;20067;-74
2022/08/31 06:05:37;;;;;;;10.02;5.63;;;17.50;99.90;;;17.00;100.00;101418.66;4202963;28;20036;-74
2022/08/31 06:07:38;;;;;;;7.47;4.57;;;17.50;99.90;;;16.91;100.00;101393.94;4199500;28;20029;-74
2022/08/31 06:09:39;;;;;;;6.95;5.72;;;17.50;99.90;;;17.03;100.00;101402.31;4192540;28;20033;-74
2022/08/31 06:11:41;;;;;;;7.47;4.90;;;17.60;99.90;;;17.09;100.00;101401.59;4202103;28;20021;-74
2022/08/31 06:13:42;;;;;;;11.05;5.47;;;17.70;99.90;;;17.09;100.00;101386.41;4201886;28;20033;-74
2022/08/31 06:15:43;;;;;;;7.10;3.88;;;17.70;99.90;;;17.19;100.00;101380.81;4201684;28;20027;-74
2022/08/31 06:17:44;;;;;;;7.88;4.55;;;17.80;99.90;;;17.35;100.00;101401.16;4202259;28;20028;-74
2022/08/31 06:19:45;;;;;;;11.68;6.13;;;17.90;99.90;;;17.36;100.00;101389.44;4185416;28;20515;-74
2022/08/31 06:21:48;;;;;;;7.28;4.70;;;18.00;99.90;;;17.50;100.00;101394.78;4219283;28;20028;-74
2022/08/31 06:23:51;;;;;;;6.38;4.18;;;18.10;99.90;;;17.74;100.00;101408.88;4218738;28;20032;-74
2022/08/31 06:26:05;;;;;;;6.90;3.97;;;18.20;99.90;;;17.81;100.00;101388.44;4201864;28;20029;-74
2022/08/31 06:28:07;;;;;;;11.30;5.93;;;18.30;99.90;;;17.89;100.00;101388.34;4197273;28;20032;-74
2022/08/31 06:30:09;;;;;;;8.40;4.53;;;18.50;99.90;;;17.94;100.00;101375.25;4202803;28;20650;-74
2022/08/31 06:32:14;;;;;;;5.00;3.80;;;18.60;99.90;;;18.22;100.00;101393.00;4202858;28;20075;-74
2022/08/31 06:34:17;;;;;;;8.45;4.95;;;18.70;99.90;;;18.38;100.00;101402.63;4201338;28;20062;-74
2022/08/31 06:36:22;;;;;;;15.65;5.07;;;18.90;99.90;;;18.46;100.00;101386.44;4198172;28;20454;-74
2022/08/31 06:38:23;;;;;;;7.22;4.70;;;19.00;99.90;;;18.51;100.00;101378.75;4201689;28;20056;-74
2022/08/31 06:40:28;;;;;;;11.70;5.70;;;19.20;99.90;;;18.74;99.95;101405.22;4202806;28;20396;-74
2022/08/31 06:42:29;;;;;;;7.75;4.57;;;19.20;99.90;;;18.66;99.39;101387.50;4202837;28;20021;-74
2022/08/31 06:44:30;;;;;;;7.03;3.67;;;19.40;99.90;;;19.00;98.94;101416.13;4202896;28;20040;-74
2022/08/31 06:46:34;;;;;;;6.65;3.78;;;19.40;99.90;;;18.93;98.43;101393.88;4201260;28;20028;-74
2022/08/31 06:48:36;;;;;;;9.85;4.55;;;19.50;99.90;;;18.99;98.35;101386.94;4201454;28;20035;-74
2022/08/31 06:50:39;;;;;;;8.40;4.20;;;19.60;99.90;;;18.89;98.38;101373.06;4195715;28;20029;-74
2022/08/31 06:52:40;;;;;;;8.75;4.40;;;19.60;99.90;;;18.96;98.78;101398.00;4218585;28;20419;-74
2022/08/31 06:54:41;;;;;;;8.85;4.93;;;19.60;99.90;;;18.76;99.04;101398.66;4202683;28;20024;-74
2022/08/31 06:56:42;;;;;;;10.10;5.35;;;19.50;99.90;;;18.60;99.72;101388.28;4201222;28;20426;-74
2022/08/31 06:58:43;;;;;;;9.55;4.50;;;19.40;99.90;;;18.71;99.63;101398.44;4201141;28;20029;-74
2022/08/31 07:00:44;;;;;;;5.60;3.97;;;19.40;99.90;;;18.63;100.00;101393.22;4201008;28;20028;-74
2022/08/31 07:02:45;;;;;;;16.65;5.80;;;19.40;99.90;;;18.64;99.95;101397.53;4202332;28;20028;-74
2022/08/31 07:04:46;;;;;;;10.45;4.82;;;19.40;99.90;;;18.75;100.00;101413.06;4201500;28;20123;-74
2022/08/31 07:06:47;;;;;;;9.38;4.10;;;19.40;99.90;;;18.78;99.88;101412.69;4202452;28;20510;-74
2022/08/31 07:08:55;;;;;;;7.32;4.28;;;19.40;99.90;;;18.82;99.76;101409.63;4189012;28;20044;-74
2022/08/31 07:10:56;;;;;;;9.98;4.60;;;19.40;99.90;;;18.87;100.00;101401.84;4202395;28;20104;-74
2022/08/31 07:12:57;;;;;;;7.53;5.20;;;19.40;99.90;;;18.93;99.53;101414.44;4201173;28;20020;-74
2022/08/31 07:14:58;;;;;;;7.65;3.67;;;19.50;99.90;;;18.97;99.77;101410.34;4202500;28;20396;-74
2022/08/31 07:17:01;;;;;;;8.18;5.50;;;19.50;99.90;;;19.03;99.32;101425.59;4201943;28;20062;-74
2022/08/31 07:19:05;;;;;;;11.82;4.47;;;19.50;99.90;;;18.92;99.18;101396.72;4202298;28;20036;-74
2022/08/31 07:21:14;;;;;;;8.18;4.32;;;19.50;99.90;;;18.97;98.51;101405.81;4200840;28;20036;-74
2022/08/31 07:23:15;;;;;;;7.10;4.57;;;19.50;99.90;;;18.95;98.53;101404.38;4184522;28;20370;-74
2022/08/31 07:25:17;;;;;;;9.55;5.07;;;19.60;99.90;;;19.05;98.26;101418.22;4205603;28;20119;-74
2022/08/31 07:27:17;;;;;;;7.57;4.18;;;19.60;99.90;;;19.23;97.49;101423.91;4201025;28;20028;-74
2022/08/31 07:29:21;;;;;;;9.43;4.68;;;19.70;99.90;;;19.23;96.61;101397.16;4193677;28;20388;-74
2022/08/31 07:31:29;;;;;;;11.10;4.72;;;19.80;99.90;;;19.42;95.18;101409.84;4183892;28;20053;-74
2022/08/31 07:33:37;;;;;;;7.50;4.20;;;20.00;99.90;;;19.50;94.81;101396.34;4200305;28;21050;-74
2022/08/31 07:35:38;;;;;;;5.18;3.72;;;20.10;99.90;;;19.66;94.27;101395.16;4217505;28;20027;-74
2022/08/31 07:42:29;;;;;;;13.35;4.43;;;20.40;99.90;;;19.88;91.69;101407.41;4198475;28;20113;-74
2022/08/31 07:44:33;;;;;;;6.03;3.50;;;20.40;99.90;;;20.02;92.51;101413.59;4197453;28;20119;-74
2022/08/31 07:46:34;;;;;;;9.23;5.32;;;20.40;99.90;;;20.08;91.05;101421.69;4201741;28;20021;-74
2022/08/31 07:48:35;;;;;;;8.77;4.85;;;20.50;99.90;;;20.09;91.00;101411.78;4200443;28;20405;-74
2022/08/31 07:50:38;;;;;;;10.57;4.93;;;20.60;99.90;;;20.13;90.30;101408.50;4201899;28;20158;-74
2022/08/31 07:52:50;;;;;;;10.30;4.72;;;20.60;99.90;;;20.11;89.29;101397.16;4201824;28;20020;-74
2022/08/31 07:54:55;;;;;;;7.32;5.35;;;20.70;99.90;;;20.28;89.56;101427.94;4217424;28;20131;-74
2022/08/31 07:57:02;;;;;;;8.80;4.93;;;20.70;99.90;;;20.17;89.01;101408.91;4200618;28;20438;-74
2022/08/31 07:59:06;;;;;;;8.23;3.80;;;20.70;99.90;;;20.18;89.76;101403.38;4198147;28;20025;-74
2022/08/31 08:01:07;;;;;;;13.60;4.88;;;20.80;99.90;;;20.16;89.42;101408.09;4200175;28;20043;-74
2022/08/31 08:03:10;;;;;;;9.27;4.28;;;20.80;99.90;;;20.38;89.13;101424.88;4190694;28;20052;-74
2022/08/31 08:05:22;;;;;;;9.82;4.63;;;20.80;99.90;;;20.29;89.10;101399.28;4201728;28;20063;-74
2022/08/31 08:07:23;;;;;;;9.65;4.65;;;20.90;99.90;;;20.52;88.64;101429.22;4183903;28;20032;-74
2022/08/31 08:09:26;;;;;;;8.35;4.45;;;21.00;99.90;;;20.54;88.35;101399.53;4189881;28;20109;-74
2022/08/31 08:11:27;;;;;;;8.27;5.15;;;21.10;99.90;;;20.69;86.66;101409.03;4200581;28;20017;-74
2022/08/31 08:13:28;;;;;;;13.23;5.10;;;21.20;99.90;;;20.63;85.87;101388.41;4178831;28;20117;-74
2022/08/31 08:15:32;;;;;;;8.88;4.03;;;21.30;99.90;;;20.80;86.14;101389.66;4198852;28;20039;-74
2022/08/31 08:17:33;;;;;;;11.30;4.22;;;21.50;99.90;;;20.92;85.73;101377.25;4184116;28;20025;-74
2022/08/31 08:19:34;;;;;;;7.47;4.60;;;21.60;99.90;;;21.07;85.01;101400.34;4192023;28;20143;-74
2022/08/31 08:21:36;;;;;;;9.18;4.20;;;21.70;99.90;;;21.02;85.28;101402.84;4196774;28;20026;-74
2022/08/31 08:23:40;;;;;;;6.50;3.63;;;21.70;99.90;;;21.17;85.64;101416.88;4200294;28;20397;-74
2022/08/31 08:25:45;;;;;;;9.73;4.22;;;21.80;99.90;;;21.15;85.29;101397.47;4200410;28;20028;-74
2022/08/31 08:27:46;;;;;;;7.70;3.72;;;21.80;99.90;;;21.26;84.16;101388.78;4200717;28;20044;-74
2022/08/31 08:29:47;;;;;;;7.57;4.10;;;22.00;99.90;;;21.45;84.00;101404.00;4201392;28;20028;-74
2022/08/31 08:31:53;;;;;;;6.20;3.80;;;22.10;99.90;;;21.37;82.42;101397.00;4201107;28;20021;-74
2022/08/31 08:33:54;;;;;;;10.70;4.60;;;22.10;99.90;;;21.40;82.99;101401.13;4201597;28;20029;-75
2022/08/31 08:35:59;;;;;;;8.40;4.05;;;22.20;99.90;;;21.42;82.57;101396.38;4203264;28;20029;-74